createdAt,value
2022-07-25T00:01:53.276Z,4.45
2022-07-25T00:07:08.254Z,4.55
2022-07-25T00:09:35.184Z,4.43
2022-07-25T00:12:02.323Z,4.70
2022-07-25T00:17:11.327Z,4.97
2022-07-25T00:19:47.780Z,4.70
2022-07-25T00:22:14.688Z,4.47
2022-07-25T00:24:41.494Z,5.18
2022-07-25T00:27:08.343Z,4.85
2022-07-25T00:29:38.022Z,5.20
2022-07-25T00:32:05.188Z,5.15
2022-07-25T00:34:35.144Z,5.10
2022-07-25T00:37:01.849Z,5.25
2022-07-25T00:39:31.910Z,4.85
2022-07-25T00:42:03.068Z,4.82
2022-07-25T00:44:32.947Z,5.20
2022-07-25T00:47:03.527Z,4.68
2022-07-25T00:49:38.956Z,5.38
2022-07-25T00:52:06.111Z,5.50
2022-07-25T00:54:36.585Z,5.68
2022-07-25T00:57:14.702Z,6.43
2022-07-25T01:00:00.235Z,5.63
2022-07-25T01:02:27.283Z,5.63
2022-07-25T01:04:55.161Z,6.40
2022-07-25T01:09:51.865Z,6.13
2022-07-25T01:12:18.827Z,5.80
2022-07-25T01:14:45.742Z,5.75
2022-07-25T01:17:13.410Z,6.10
2022-07-25T01:19:40.399Z,6.35
2022-07-25T01:22:06.978Z,6.15
2022-07-25T01:24:35.661Z,6.57
2022-07-25T01:27:03.089Z,6.22
2022-07-25T01:29:29.978Z,6.97
2022-07-25T01:31:56.763Z,6.95
2022-07-25T01:34:23.861Z,6.80
2022-07-25T01:36:53.404Z,7.05
2022-07-25T01:39:23.493Z,6.80
2022-07-25T01:41:50.383Z,6.85
2022-07-25T01:44:20.291Z,6.88
2022-07-25T01:46:47.277Z,7.10
2022-07-25T01:49:14.443Z,6.78
2022-07-25T01:51:41.324Z,6.75
2022-07-25T01:54:10.266Z,6.93
2022-07-25T01:56:37.304Z,6.70
2022-07-25T01:59:06.280Z,6.55
2022-07-25T02:01:33.051Z,6.65
2022-07-25T02:04:02.251Z,6.75
2022-07-25T02:06:28.806Z,6.70
2022-07-25T02:08:55.366Z,6.82
2022-07-25T02:11:22.269Z,6.82
2022-07-25T02:13:52.230Z,7.47
2022-07-25T02:16:19.059Z,7.10
2022-07-25T02:18:55.845Z,6.93
2022-07-25T02:21:22.726Z,6.53
2022-07-25T02:23:51.996Z,6.65
2022-07-25T02:26:29.229Z,6.88
2022-07-25T02:29:02.496Z,6.50
2022-07-25T02:31:42.107Z,6.60
2022-07-25T02:34:12.127Z,6.50
2022-07-25T02:36:48.813Z,6.75
2022-07-25T02:39:15.963Z,6.32
2022-07-25T02:41:43.728Z,6.38
2022-07-25T02:44:10.743Z,5.90
2022-07-25T02:54:08.957Z,5.93
2022-07-25T02:57:16.444Z,6.75
2022-07-25T02:59:49.132Z,6.70
2022-07-25T03:02:53.955Z,6.90
2022-07-25T03:05:24.126Z,7.32
2022-07-25T03:07:51.467Z,7.70
2022-07-25T03:10:21.949Z,6.95
2022-07-25T03:12:48.906Z,7.30
2022-07-25T03:15:18.542Z,7.88
2022-07-25T03:17:50.764Z,7.65
2022-07-25T03:20:36.559Z,8.02
2022-07-25T03:23:12.367Z,8.80
2022-07-25T03:25:39.273Z,9.23
2022-07-25T03:28:05.876Z,8.85
2022-07-25T03:30:33.307Z,9.20
2022-07-25T03:33:04.166Z,9.30
2022-07-25T03:35:40.165Z,8.73
2022-07-25T03:38:12.355Z,8.77
2022-07-25T03:40:39.837Z,9.07
2022-07-25T03:43:12.943Z,8.65
2022-07-25T03:45:39.758Z,8.77
2022-07-25T03:48:10.198Z,9.15
2022-07-25T03:50:37.427Z,9.38
2022-07-25T03:53:07.090Z,8.77
2022-07-25T03:55:46.647Z,8.93
2022-07-25T03:58:13.816Z,9.70
2022-07-25T04:00:42.976Z,9.30
2022-07-25T04:03:10.462Z,9.93
2022-07-25T04:05:37.397Z,9.15
2022-07-25T04:08:10.208Z,9.48
2022-07-25T04:10:41.505Z,9.20
2022-07-25T04:13:11.380Z,9.73
2022-07-25T04:15:47.365Z,9.35
2022-07-25T04:18:16.941Z,9.63
2022-07-25T04:20:46.403Z,9.88
2022-07-25T04:23:23.314Z,9.82
2022-07-25T04:25:52.816Z,9.73
2022-07-25T04:28:28.376Z,10.30
2022-07-25T04:30:57.193Z,9.98
2022-07-25T04:33:24.324Z,10.13
2022-07-25T04:35:51.207Z,9.80
2022-07-25T04:38:18.651Z,9.85
2022-07-25T04:40:45.998Z,9.82
2022-07-25T04:43:13.229Z,10.50
2022-07-25T04:45:40.324Z,10.77
2022-07-25T04:48:07.758Z,9.88
2022-07-25T04:50:36.936Z,10.13
2022-07-25T04:53:05.377Z,10.32
2022-07-25T04:55:38.920Z,10.85
2022-07-25T04:58:06.298Z,9.77
2022-07-25T05:00:37.617Z,9.52
2022-07-25T05:03:04.329Z,10.00
2022-07-25T05:05:31.579Z,9.30
2022-07-25T05:08:03.741Z,9.77
2022-07-25T05:10:30.738Z,9.70
2022-07-25T05:12:57.677Z,9.23
2022-07-25T05:15:24.838Z,9.68
2022-07-25T05:17:51.888Z,9.00
2022-07-25T05:20:18.804Z,9.18
2022-07-25T05:22:47.974Z,9.38
2022-07-25T05:25:18.565Z,8.88
2022-07-25T05:27:46.127Z,8.70
2022-07-25T05:30:16.974Z,9.52
2022-07-25T05:32:43.795Z,9.38
2022-07-25T05:35:13.390Z,8.90
2022-07-25T05:37:50.290Z,9.15
2022-07-25T05:40:23.302Z,9.20
2022-07-25T05:42:52.419Z,8.32
2022-07-25T05:45:19.267Z,8.23
2022-07-25T05:47:45.944Z,8.10
2022-07-25T05:50:12.958Z,8.52
2022-07-25T05:52:39.894Z,8.30
2022-07-25T05:55:07.365Z,8.25
2022-07-25T05:57:37.283Z,8.35
2022-07-25T06:00:05.542Z,8.45
2022-07-25T06:02:32.585Z,8.20
2022-07-25T06:04:59.652Z,8.10
2022-07-25T06:07:26.672Z,8.20
2022-07-25T06:09:53.731Z,8.43
2022-07-25T06:12:20.385Z,8.40
2022-07-25T06:14:54.291Z,8.18
2022-07-25T06:17:21.377Z,8.60
2022-07-25T06:19:51.347Z,8.48
2022-07-25T06:22:19.724Z,8.38
2022-07-25T06:24:52.611Z,8.45
2022-07-25T06:27:21.530Z,8.85
2022-07-25T06:29:53.058Z,8.48
2022-07-25T06:32:20.123Z,8.73
2022-07-25T06:34:50.023Z,7.90
2022-07-25T06:37:17.460Z,8.00
2022-07-25T06:39:46.017Z,7.85
2022-07-25T06:42:16.614Z,7.40
2022-07-25T06:44:49.653Z,7.15
2022-07-25T06:47:16.761Z,6.90
2022-07-25T06:49:43.592Z,5.95
2022-07-25T06:52:10.315Z,6.10
2022-07-25T06:54:37.233Z,5.65
2022-07-25T06:57:04.112Z,6.38
2022-07-25T06:59:34.463Z,6.43
2022-07-25T07:02:01.346Z,6.68
2022-07-25T07:04:28.308Z,6.30
2022-07-25T07:06:54.972Z,5.78
2022-07-25T07:09:21.719Z,5.50
2022-07-25T07:11:48.376Z,5.85
2022-07-25T07:57:06.586Z,1.50
2022-07-25T07:59:36.233Z,1.50
2022-07-25T08:02:03.134Z,1.45
2022-07-25T08:04:43.618Z,1.65
2022-07-25T08:07:10.866Z,1.70
2022-07-25T08:09:49.773Z,1.52
2022-07-25T08:12:23.438Z,1.52
2022-07-25T08:17:17.437Z,1.20
2022-07-25T08:19:44.865Z,1.30
2022-07-25T08:28:13.925Z,2.03
2022-07-25T08:30:42.315Z,1.70
2022-07-25T08:33:13.955Z,1.63
2022-07-25T08:35:56.550Z,1.80
2022-07-25T08:38:26.072Z,1.60
2022-07-25T08:41:13.712Z,1.65
2022-07-25T08:43:58.759Z,1.73
2022-07-25T08:46:33.148Z,1.65
2022-07-25T08:49:03.149Z,1.52
2022-07-25T08:51:35.309Z,1.42
2022-07-25T08:54:06.373Z,1.85
2022-07-25T08:56:34.408Z,1.67
2022-07-25T08:59:07.018Z,1.50
2022-07-25T09:01:35.119Z,1.65
2022-07-25T09:04:13.536Z,1.50
2022-07-25T09:06:57.282Z,1.42
2022-07-25T09:09:32.314Z,1.65
2022-07-25T09:11:59.710Z,1.42
2022-07-25T09:14:27.437Z,1.45
2022-07-25T09:16:54.415Z,1.35
2022-07-25T09:19:26.038Z,1.60
2022-07-25T09:22:14.884Z,1.60
2022-07-25T09:24:45.849Z,1.38
2022-07-25T09:27:31.284Z,1.65
2022-07-25T09:30:22.165Z,1.45
2022-07-25T09:33:00.971Z,1.50
2022-07-25T09:35:38.751Z,1.40
2022-07-25T09:41:03.452Z,1.88
2022-07-25T09:43:40.336Z,1.50
2022-07-25T09:46:08.579Z,1.55
2022-07-25T09:48:36.818Z,1.80
2022-07-25T09:51:24.361Z,1.70
2022-07-25T09:53:56.900Z,1.70
2022-07-25T09:56:26.553Z,1.90
2022-07-25T10:03:12.262Z,1.55
2022-07-25T10:05:56.890Z,1.58
2022-07-25T10:08:24.860Z,1.65
2022-07-25T10:10:56.777Z,1.50
2022-07-25T10:13:32.062Z,1.70
2022-07-25T10:16:05.533Z,1.80
2022-07-25T10:18:32.237Z,2.22
2022-07-25T10:21:25.457Z,1.88
2022-07-25T10:24:09.082Z,2.30
2022-07-25T10:26:40.876Z,2.20
2022-07-25T10:29:14.875Z,2.55
2022-07-25T10:31:51.612Z,2.90
2022-07-25T10:34:30.994Z,3.10
2022-07-25T10:37:13.252Z,3.10
2022-07-25T10:39:44.750Z,2.90
2022-07-25T10:42:22.809Z,2.90
2022-07-25T10:44:59.525Z,2.90
2022-07-25T10:47:29.196Z,3.53
2022-07-25T10:50:25.192Z,3.28
2022-07-25T10:53:00.035Z,3.60
2022-07-25T10:55:29.014Z,3.90
2022-07-25T10:58:22.153Z,3.65
2022-07-25T11:00:51.224Z,3.10
2022-07-25T11:03:28.269Z,3.03
2022-07-25T11:05:56.195Z,3.00
2022-07-25T11:08:32.417Z,3.10
2022-07-25T11:10:59.242Z,2.90
2022-07-25T11:13:29.059Z,2.40
2022-07-25T11:15:59.452Z,2.55
2022-07-25T11:18:37.980Z,2.50
2022-07-25T11:21:08.043Z,2.00
2022-07-25T11:23:36.912Z,1.67
2022-07-25T11:28:42.503Z,1.92
2022-07-25T11:31:10.863Z,1.75
2022-07-25T11:33:39.157Z,2.35
2022-07-25T11:36:06.469Z,2.50
2022-07-25T11:38:34.149Z,2.70
2022-07-25T11:41:01.619Z,2.20
2022-07-25T11:43:28.715Z,2.40
2022-07-25T11:45:57.974Z,2.10
2022-07-25T11:48:42.935Z,2.50
2022-07-25T11:51:18.721Z,2.25
2022-07-25T11:53:49.832Z,2.50
2022-07-25T11:56:41.387Z,2.42
2022-07-25T11:59:09.411Z,2.40
2022-07-25T12:01:38.819Z,2.35
2022-07-25T12:04:16.520Z,2.30
2022-07-25T12:06:50.579Z,2.58
2022-07-25T12:09:21.681Z,2.60
2022-07-25T12:15:03.396Z,2.72
2022-07-25T12:17:30.708Z,2.60
2022-07-25T12:20:00.140Z,2.70
2022-07-25T12:22:26.766Z,2.25
2022-07-25T12:24:56.520Z,2.10
2022-07-25T12:27:23.257Z,2.20
2022-07-25T12:29:53.040Z,2.45
2022-07-25T12:32:19.650Z,2.33
2022-07-25T12:34:46.744Z,2.20
2022-07-25T12:37:37.511Z,2.50
2022-07-25T12:40:08.496Z,2.30
2022-07-25T12:42:58.073Z,2.50
2022-07-25T12:45:25.211Z,2.40
2022-07-25T12:48:12.354Z,2.30
2022-07-25T12:50:48.832Z,2.45
2022-07-25T12:53:18.089Z,2.60
2022-07-25T12:59:20.609Z,2.53
2022-07-25T13:01:48.870Z,2.80
2022-07-25T13:04:20.896Z,2.60
2022-07-25T13:06:47.851Z,2.45
2022-07-25T13:09:22.620Z,2.25
2022-07-25T13:12:33.016Z,1.92
2022-07-25T13:15:58.647Z,2.28
2022-07-25T13:21:33.490Z,2.00
2022-07-25T13:24:03.510Z,2.17
2022-07-25T13:26:55.951Z,2.38
2022-07-25T13:36:17.603Z,2.00
2022-07-25T13:39:53.475Z,2.10
2022-07-25T13:56:23.320Z,1.88
2022-07-25T13:58:50.356Z,1.98
2022-07-25T14:01:25.575Z,2.70
2022-07-25T14:03:54.066Z,1.77
2022-07-25T14:06:26.591Z,2.03
2022-07-25T14:09:02.478Z,1.80
2022-07-25T14:11:32.470Z,1.50
2022-07-25T14:14:22.786Z,1.50
2022-07-25T14:17:30.498Z,1.52
2022-07-25T14:20:35.785Z,1.55
2022-07-25T14:23:06.065Z,1.83
2022-07-25T14:25:32.846Z,1.60
2022-07-25T14:28:00.711Z,1.50
2022-07-25T14:30:27.953Z,1.90
2022-07-25T14:32:54.567Z,2.28
2022-07-25T14:35:27.480Z,1.55
2022-07-25T14:37:56.899Z,1.60
2022-07-25T14:40:23.640Z,1.60
2022-07-25T14:42:50.420Z,1.50
2022-07-25T14:45:18.965Z,1.40
2022-07-25T14:47:54.316Z,1.40
2022-07-25T14:50:21.378Z,1.27
2022-07-25T14:52:47.969Z,1.30
2022-07-25T14:55:14.527Z,1.10
2022-07-25T14:57:44.017Z,1.13
2022-07-25T15:00:11.311Z,1.00
2022-07-25T15:02:38.303Z,1.05
2022-07-25T15:05:05.671Z,1.13
2022-07-25T15:07:34.954Z,1.10
2022-07-25T15:10:01.560Z,0.90
2022-07-25T15:12:28.448Z,1.00
2022-07-25T15:14:55.265Z,1.08
2022-07-25T15:17:21.991Z,1.00
2022-07-25T15:19:48.504Z,0.90
2022-07-25T15:22:17.721Z,1.00
2022-07-25T15:25:17.958Z,0.90
2022-07-25T15:27:31.504Z,0.88
2022-07-25T15:29:58.379Z,1.45
2022-07-25T15:32:24.948Z,1.15
2022-07-25T15:34:51.588Z,1.27
2022-07-25T15:37:18.195Z,1.88
2022-07-25T15:39:47.837Z,1.15
2022-07-25T15:42:17.470Z,1.02
2022-07-25T15:44:44.004Z,1.10
2022-07-25T15:47:14.662Z,1.10
2022-07-25T15:49:42.088Z,0.90
2022-07-25T15:52:08.656Z,1.00
2022-07-25T15:54:36.398Z,1.00
2022-07-25T15:57:03.063Z,1.00
2022-07-25T15:59:29.648Z,1.00
2022-07-25T16:01:59.005Z,1.10
2022-07-25T16:04:26.048Z,1.50
2022-07-25T16:06:52.793Z,1.25
2022-07-25T16:09:21.001Z,1.27
2022-07-25T16:11:47.731Z,1.13
2022-07-25T16:14:14.511Z,1.17
2022-07-25T16:16:44.333Z,1.40
2022-07-25T16:19:14.481Z,1.00
2022-07-25T16:21:41.498Z,1.15
2022-07-25T16:24:10.646Z,1.20
2022-07-25T16:26:37.799Z,0.90
2022-07-25T16:29:05.526Z,0.85
2022-07-25T16:31:32.228Z,0.80
2022-07-25T16:33:58.943Z,0.80
2022-07-25T16:36:26.540Z,0.90
2022-07-25T16:41:20.348Z,1.00
2022-07-25T16:43:47.356Z,0.77
2022-07-25T16:46:14.232Z,0.82
2022-07-25T16:48:41.001Z,1.00
2022-07-25T16:51:07.643Z,0.88
2022-07-25T16:53:37.101Z,0.98
2022-07-25T16:56:04.334Z,1.10
2022-07-25T16:58:32.336Z,1.00
2022-07-25T17:00:59.123Z,0.95
2022-07-25T17:03:25.769Z,1.10
2022-07-25T17:05:54.096Z,1.20
2022-07-25T17:08:20.672Z,1.15
2022-07-25T17:10:47.367Z,1.10
2022-07-25T17:13:13.887Z,0.90
2022-07-25T17:15:40.607Z,1.50
2022-07-25T17:18:07.258Z,1.30
2022-07-25T17:20:33.940Z,1.00
2022-07-25T17:23:01.192Z,1.20
2022-07-25T17:25:30.762Z,1.20
2022-07-25T17:27:57.789Z,1.20
2022-07-25T17:30:24.892Z,1.02
2022-07-25T17:32:53.584Z,1.33
2022-07-25T17:35:21.120Z,1.08
2022-07-25T17:37:48.082Z,1.08
2022-07-25T17:40:14.716Z,1.55
2022-07-25T17:42:45.298Z,1.10
2022-07-25T17:45:12.410Z,1.30
2022-07-25T17:47:39.086Z,1.27
2022-07-25T17:50:06.435Z,1.50
2022-07-25T17:52:33.234Z,1.50
2022-07-25T17:55:00.162Z,1.52
2022-07-25T17:57:27.095Z,1.65
2022-07-25T17:59:57.243Z,1.70
2022-07-25T18:02:24.402Z,1.77
2022-07-25T18:04:52.241Z,1.60
2022-07-25T18:07:19.656Z,1.50
2022-07-25T18:09:46.722Z,1.60
2022-07-25T18:12:13.278Z,1.50
2022-07-25T18:14:40.026Z,1.40
2022-07-25T18:17:06.748Z,1.33
2022-07-25T18:19:33.335Z,1.52
2022-07-25T18:22:00.136Z,7.45
2022-07-25T18:24:29.568Z,14.60
2022-07-25T18:26:58.636Z,4.70
2022-07-25T18:29:27.452Z,4.68
2022-07-25T18:31:54.010Z,4.25
2022-07-25T18:34:20.568Z,11.73
2022-07-25T18:36:47.166Z,33.67
2022-07-25T18:39:14.209Z,4.88
2022-07-25T18:41:40.727Z,6.22
2022-07-25T18:44:07.693Z,7.45
2022-07-25T18:46:34.634Z,10.48
2022-07-25T18:51:28.942Z,3.35
2022-07-25T18:53:55.673Z,2.45
2022-07-25T18:56:22.245Z,10.35
2022-07-25T18:58:49.706Z,7.78
2022-07-25T19:01:25.975Z,2.75
2022-07-25T19:03:53.359Z,1.75
2022-07-25T19:06:19.954Z,3.40
2022-07-25T19:08:49.846Z,2.00
2022-07-25T19:11:19.460Z,16.20
2022-07-25T19:13:50.690Z,4.50
2022-07-25T19:16:18.420Z,3.40
2022-07-25T19:18:45.573Z,6.78
2022-07-25T19:21:12.193Z,12.93
2022-07-25T19:23:38.788Z,8.40
2022-07-25T19:26:06.248Z,3.60
2022-07-25T19:28:32.930Z,3.78
2022-07-25T19:30:59.538Z,20.30
2022-07-25T19:33:26.154Z,4.75
2022-07-25T19:36:01.546Z,3.20
2022-07-25T19:38:28.146Z,2.80
2022-07-25T19:40:54.769Z,6.00
2022-07-25T19:43:21.712Z,4.95
2022-07-25T19:45:48.312Z,2.85
2022-07-25T19:48:14.895Z,22.23
2022-07-25T19:50:41.975Z,13.80
2022-07-25T19:53:08.993Z,6.05
2022-07-25T19:55:35.635Z,6.50
2022-07-25T19:58:02.254Z,5.70
2022-07-25T20:00:28.746Z,4.38
2022-07-25T20:02:55.361Z,4.82
2022-07-25T20:05:22.092Z,3.22
2022-07-25T20:07:51.791Z,12.35
2022-07-25T20:10:18.597Z,10.57
2022-07-25T20:12:46.502Z,5.10
2022-07-25T20:17:40.155Z,2.20
2022-07-25T20:20:07.753Z,1.80
2022-07-25T20:22:37.540Z,2.63
2022-07-25T20:25:10.297Z,1.80
2022-07-25T20:27:37.281Z,1.75
2022-07-25T20:30:06.524Z,1.95
2022-07-25T20:32:33.078Z,2.13
2022-07-25T20:34:59.770Z,1.67
2022-07-25T20:37:26.435Z,1.83
2022-07-25T20:39:53.088Z,1.65
2022-07-25T20:42:20.835Z,1.98
2022-07-25T20:44:47.403Z,1.63
2022-07-25T20:47:16.088Z,2.00
2022-07-25T20:49:42.676Z,1.83
2022-07-25T20:52:09.551Z,2.00
2022-07-25T20:54:36.886Z,1.50
2022-07-25T20:57:04.295Z,2.00
2022-07-25T20:59:32.175Z,2.25
2022-07-25T21:04:30.554Z,1.95
2022-07-25T21:06:57.255Z,2.17
2022-07-25T21:09:23.833Z,2.20
2022-07-25T21:11:50.443Z,2.30
2022-07-25T21:14:17.206Z,2.25
2022-07-25T21:16:43.946Z,2.17
2022-07-25T21:19:11.026Z,2.10
2022-07-25T21:21:38.040Z,2.15
2022-07-25T21:24:06.461Z,2.13
2022-07-25T21:26:33.729Z,1.80
2022-07-25T21:29:00.333Z,2.13
2022-07-25T21:31:27.121Z,2.15
2022-07-25T21:33:53.741Z,2.00
2022-07-25T21:36:20.484Z,2.00
2022-07-25T21:38:50.140Z,2.38
2022-07-25T21:41:17.078Z,1.90
2022-07-25T21:43:44.353Z,2.00
2022-07-25T21:46:11.018Z,2.55
2022-07-25T21:48:56.184Z,2.10
2022-07-25T21:51:24.370Z,2.08
2022-07-25T21:53:52.619Z,2.78
2022-07-25T21:56:19.686Z,2.45
2022-07-25T21:58:46.661Z,2.33
2022-07-25T22:01:13.413Z,2.30
2022-07-25T22:03:40.509Z,2.40
2022-07-25T22:06:08.214Z,2.40
2022-07-25T22:08:34.780Z,2.17
2022-07-25T22:11:01.570Z,2.10
2022-07-25T22:13:43.302Z,2.38
2022-07-25T22:16:10.152Z,2.50
2022-07-25T22:18:36.756Z,2.10
2022-07-25T22:21:04.092Z,2.30
2022-07-25T22:23:30.604Z,2.13
2022-07-25T22:25:57.161Z,2.40
2022-07-25T22:28:23.733Z,2.22
2022-07-25T22:30:50.273Z,2.63
2022-07-25T22:33:17.150Z,2.20
2022-07-25T22:35:43.705Z,2.10
2022-07-25T22:38:10.352Z,2.30
2022-07-25T22:40:39.510Z,2.15
2022-07-25T22:43:06.276Z,2.40
2022-07-25T22:45:32.906Z,2.40
2022-07-25T22:47:59.666Z,2.70
2022-07-25T22:50:26.303Z,2.33
2022-07-25T22:52:52.807Z,2.33
2022-07-25T22:55:19.554Z,2.40
2022-07-25T22:57:49.801Z,2.15
2022-07-25T23:00:19.437Z,2.55
2022-07-25T23:02:46.141Z,2.60
2022-07-25T23:05:12.728Z,2.50
2022-07-25T23:07:39.654Z,2.50
2022-07-25T23:10:06.874Z,2.20
2022-07-25T23:12:33.523Z,1.90
2022-07-25T23:15:00.252Z,2.33
2022-07-25T23:17:27.159Z,2.45
2022-07-25T23:19:55.584Z,2.20
2022-07-25T23:22:24.264Z,2.70
2022-07-25T23:24:51.016Z,2.47
2022-07-25T23:27:18.345Z,2.40
2022-07-25T23:29:45.770Z,2.70
2022-07-25T23:32:12.397Z,2.70
2022-07-25T23:34:39.270Z,2.20
2022-07-25T23:37:05.909Z,2.40
2022-07-25T23:39:33.489Z,2.75
2022-07-25T23:42:00.739Z,2.15
2022-07-25T23:44:27.483Z,2.30
2022-07-25T23:46:56.743Z,2.33
2022-07-25T23:49:24.073Z,2.80
2022-07-25T23:51:50.718Z,3.03
2022-07-25T23:54:17.367Z,2.28
2022-07-25T23:56:43.969Z,2.65
2022-07-25T23:59:11.139Z,2.92
